Hesperides — EANN — position and weather

sailwx.info

Track history (hours):
 
Tides and Currents Weather Stations Pressure Air Temp Water Temp Dewpoint Dewpoint Depression Visibility Wind Speed Wind Dir Waves Ship Positions

Hesperides

Last reported at 2016-Sep-29 07:09 UTC. Time now 2016-Oct-01 13:52 UTC.
Position N 30°18' W 010°19'.

Length 122 m; draft 6.1 m.

Type: Tanker. MMSI: 224462000.

Date/timePositionNaut miles runAvg speedWind from/ knotsBaromVisibWave heightAir tempDewpointWater temp
2016-Sep-29 07:09N 30°18' W 010°19'84 8.7
2016-Sep-28 21:32N 29°30' W 011°39'18 9.0
2016-Sep-28 19:33N 29°21' W 011°56'26 8.6
2016-Sep-28 16:33N 29°08' W 012°22'8 8.2
2016-Sep-28 15:32N 29°03' W 012°30'26 8.1
2016-Sep-28 12:17N 28°48' W 012°55'31 8.4
2016-Sep-28 08:33N 28°30' W 013°24'42 8.5
2016-Sep-28 03:33N 28°07' W 014°05'10 9.7
2016-Sep-28 02:33N 28°03' W 014°15'9 8.6
2016-Sep-28 01:32N 28°01' W 014°24'18 8.8
2016-Sep-27 23:33N 28°02' W 014°44'33 8.3
2016-Sep-27 19:33N 27°59' W 015°21'1 0.0
2016-Sep-26 08:13N 27°59' W 015°23'24 4.3
2016-Sep-26 02:33N 28°18' W 015°39'8 8.2
2016-Sep-26 01:34N 28°20' W 015°48'8 8.3
2016-Sep-26 00:34N 28°23' W 015°57'16 1.3
2016-Sep-25 12:32N 28°29' W 016°13'0 0.0
2016-Sep-25 11:33N 28°29' W 016°13'0 0.0
2016-Sep-25 10:32N 28°29' W 016°13'0 0.0
2016-Sep-25 09:33N 28°29' W 016°13'0 0.0
2016-Sep-25 07:33N 28°29' W 016°13'11 3.8
2016-Sep-25 04:33N 28°21' W 016°04'35 8.7
2016-Sep-25 00:33N 28°14' W 015°26'16 8.0
2016-Sep-24 22:33N 27°58' W 015°20'2 2.1
2016-Sep-24 21:33N 27°59' W 015°23'0 0.0
2016-Sep-24 19:33N 27°59' W 015°23'0 0.0
2016-Sep-23 19:33N 27°59' W 015°23'3 1.4
2016-Sep-23 17:33N 27°58' W 015°20'8 7.8
2016-Sep-23 16:33N 28°06' W 015°20'8 7.5
2016-Sep-23 15:33N 28°13' W 015°22'18 8.8
2016-Sep-23 13:33N 28°18' W 015°41'30 7.5
2016-Sep-23 09:32N 28°29' W 016°13'32 1.5
2016-Sep-22 12:34N 28°18' W 015°40'24 0.9
2016-Sep-21 08:33N 27°59' W 015°23'14 4.5
2016-Sep-21 05:33N 28°12' W 015°20'18 8.8
2016-Sep-21 03:33N 28°17' W 015°39'9 8.9
2016-Sep-21 02:33N 28°20' W 015°49'18 0.8
2016-Sep-20 02:33N 28°31' W 016°05'25 8.3
2016-Sep-19 23:33N 28°32' W 015°36'37 9.3
2016-Sep-19 19:33N 28°12' W 015°00'9 9.2
2016-Sep-19 18:33N 28°08' W 014°51'19 9.3
2016-Sep-19 16:33N 28°01' W 014°31'20 9.8
2016-Sep-19 14:33N 28°05' W 014°10'10 9.8
2016-Sep-19 13:33N 28°09' W 013°60'20 9.7
2016-Sep-19 11:28N 28°26' W 013°47'  
Track history (hours):
 
Tides and Currents Weather Stations Pressure Air Temp Water Temp Dewpoint Dewpoint Depression Visibility Wind Speed Wind Dir Waves Ship Positions

Hesperides

Last reported at 2016-Sep-29 07:09 UTC. Time now 2016-Oct-01 13:52 UTC.
Position N 30°18' W 010°19'.

Length 122 m; draft 6.1 m.

Type: Tanker. MMSI: 224462000.

Date/timePositionNaut miles runAvg speedWind from/ knotsBaromVisibWave heightAir tempDewpointWater temp
2016-Sep-29 07:09N 30°18' W 010°19'84 8.7
2016-Sep-28 21:32N 29°30' W 011°39'18 9.0
2016-Sep-28 19:33N 29°21' W 011°56'26 8.6
2016-Sep-28 16:33N 29°08' W 012°22'8 8.2
2016-Sep-28 15:32N 29°03' W 012°30'26 8.1
2016-Sep-28 12:17N 28°48' W 012°55'31 8.4
2016-Sep-28 08:33N 28°30' W 013°24'42 8.5
2016-Sep-28 03:33N 28°07' W 014°05'10 9.7
2016-Sep-28 02:33N 28°03' W 014°15'9 8.6
2016-Sep-28 01:32N 28°01' W 014°24'18 8.8
2016-Sep-27 23:33N 28°02' W 014°44'33 8.3
2016-Sep-27 19:33N 27°59' W 015°21'1 0.0
2016-Sep-26 08:13N 27°59' W 015°23'24 4.3
2016-Sep-26 02:33N 28°18' W 015°39'8 8.2
2016-Sep-26 01:34N 28°20' W 015°48'8 8.3
2016-Sep-26 00:34N 28°23' W 015°57'16 1.3
2016-Sep-25 12:32N 28°29' W 016°13'0 0.0
2016-Sep-25 11:33N 28°29' W 016°13'0 0.0
2016-Sep-25 10:32N 28°29' W 016°13'0 0.0
2016-Sep-25 09:33N 28°29' W 016°13'0 0.0
2016-Sep-25 07:33N 28°29' W 016°13'11 3.8
2016-Sep-25 04:33N 28°21' W 016°04'35 8.7
2016-Sep-25 00:33N 28°14' W 015°26'16 8.0
2016-Sep-24 22:33N 27°58' W 015°20'2 2.1
2016-Sep-24 21:33N 27°59' W 015°23'0 0.0
2016-Sep-24 19:33N 27°59' W 015°23'0 0.0
2016-Sep-23 19:33N 27°59' W 015°23'3 1.4
2016-Sep-23 17:33N 27°58' W 015°20'8 7.8
2016-Sep-23 16:33N 28°06' W 015°20'8 7.5
2016-Sep-23 15:33N 28°13' W 015°22'18 8.8
2016-Sep-23 13:33N 28°18' W 015°41'30 7.5
2016-Sep-23 09:32N 28°29' W 016°13'32 1.5
2016-Sep-22 12:34N 28°18' W 015°40'24 0.9
2016-Sep-21 08:33N 27°59' W 015°23'14 4.5
2016-Sep-21 05:33N 28°12' W 015°20'18 8.8
2016-Sep-21 03:33N 28°17' W 015°39'9 8.9
2016-Sep-21 02:33N 28°20' W 015°49'18 0.8
2016-Sep-20 02:33N 28°31' W 016°05'25 8.3
2016-Sep-19 23:33N 28°32' W 015°36'37 9.3
2016-Sep-19 19:33N 28°12' W 015°00'9 9.2
2016-Sep-19 18:33N 28°08' W 014°51'19 9.3
2016-Sep-19 16:33N 28°01' W 014°31'20 9.8
2016-Sep-19 14:33N 28°05' W 014°10'10 9.8
2016-Sep-19 13:33N 28°09' W 013°60'20 9.7
2016-Sep-19 11:28N 28°26' W 013°47'  

Dump ship's entire track history